createdAt,value
2019-02-23T00:01:15.568Z,90.70
2019-02-23T00:03:44.520Z,90.70
2019-02-23T00:06:13.435Z,90.80
2019-02-23T00:08:42.288Z,90.90
2019-02-23T00:11:11.340Z,91.10
2019-02-23T00:13:40.335Z,91.30
2019-02-23T00:16:09.451Z,91.20
2019-02-23T00:18:38.569Z,91.30
2019-02-23T00:21:07.817Z,91.30
2019-02-23T00:23:36.700Z,91.00
2019-02-23T00:26:05.564Z,91.10
2019-02-23T00:28:34.517Z,91.20
2019-02-23T00:31:04.693Z,91.20
2019-02-23T00:33:33.549Z,91.20
2019-02-23T00:36:02.392Z,91.40
2019-02-23T00:38:31.660Z,91.10
2019-02-23T00:41:00.860Z,91.10
2019-02-23T00:43:29.980Z,91.00
2019-02-23T00:45:58.936Z,91.30
2019-02-23T00:48:27.912Z,91.30
2019-02-23T00:50:56.832Z,90.90
2019-02-23T00:53:25.811Z,91.10
2019-02-23T00:55:54.752Z,91.70
2019-02-23T00:58:24.004Z,91.60
2019-02-23T01:00:52.961Z,91.60
2019-02-23T01:03:21.896Z,91.40
2019-02-23T01:05:50.764Z,91.00
2019-02-23T01:08:19.749Z,90.40
2019-02-23T01:10:57.805Z,90.40
2019-02-23T01:13:19.687Z,90.50
2019-02-23T01:15:48.648Z,90.90
2019-02-23T01:18:17.586Z,90.90
2019-02-23T01:20:46.497Z,91.20
2019-02-23T01:23:15.409Z,91.50
2019-02-23T01:25:44.412Z,92.20
2019-02-23T01:28:13.272Z,91.80
2019-02-23T01:30:42.340Z,91.50
2019-02-23T01:33:11.346Z,91.70
2019-02-23T01:35:40.275Z,91.70
2019-02-23T01:38:09.228Z,91.50
2019-02-23T01:40:38.556Z,91.50
2019-02-23T01:43:07.489Z,91.80
2019-02-23T01:45:42.419Z,91.80
2019-02-23T01:48:07.686Z,91.90
2019-02-23T01:50:36.591Z,92.30
2019-02-23T01:53:05.651Z,92.30
2019-02-23T01:55:34.884Z,92.30
2019-02-23T01:58:03.875Z,92.40
2019-02-23T02:00:33.456Z,92.10
2019-02-23T02:03:02.389Z,92.00
2019-02-23T02:05:31.330Z,91.90
2019-02-23T02:08:00.687Z,91.90
2019-02-23T02:10:30.171Z,91.90
2019-02-23T02:12:59.164Z,92.00
2019-02-23T02:15:28.236Z,92.10
2019-02-23T02:17:57.263Z,92.30
2019-02-23T02:20:26.112Z,92.30
2019-02-23T02:22:55.004Z,92.10
2019-02-23T02:25:24.019Z,92.30
2019-02-23T02:27:53.024Z,92.30
2019-02-23T02:30:22.588Z,92.40
2019-02-23T02:32:51.908Z,92.70
2019-02-23T02:35:20.858Z,92.40
2019-02-23T02:37:50.187Z,92.30
2019-02-23T02:40:19.235Z,92.40
2019-02-23T02:42:48.148Z,92.40
2019-02-23T02:45:17.202Z,92.60
2019-02-23T02:47:46.143Z,92.70
2019-02-23T02:50:23.725Z,92.70
2019-02-23T02:52:45.682Z,92.70
2019-02-23T02:55:14.544Z,92.80
2019-02-23T02:57:43.750Z,93.00
2019-02-23T03:00:13.388Z,92.90
2019-02-23T03:02:42.316Z,92.70
2019-02-23T03:05:11.306Z,92.90
2019-02-23T03:07:40.392Z,92.80
2019-02-23T03:10:09.380Z,93.10
2019-02-23T03:12:38.238Z,92.80
2019-02-23T03:15:07.672Z,92.80
2019-02-23T03:17:36.594Z,92.90
2019-02-23T03:20:06.649Z,93.10
2019-02-23T03:22:35.540Z,93.00
2019-02-23T03:25:04.764Z,93.00
2019-02-23T03:27:34.104Z,92.90
2019-02-23T03:30:03.017Z,92.80
2019-02-23T03:32:33.562Z,93.00
2019-02-23T03:35:02.436Z,92.60
2019-02-23T03:37:31.395Z,93.00
2019-02-23T03:40:00.398Z,92.70
2019-02-23T03:42:29.540Z,92.70
2019-02-23T03:44:58.444Z,92.70
2019-02-23T03:47:27.449Z,92.80
2019-02-23T03:49:56.623Z,92.80
2019-02-23T03:52:25.664Z,92.70
2019-02-23T03:54:54.514Z,92.60
2019-02-23T03:57:23.497Z,92.70
2019-02-23T03:59:52.526Z,92.70
2019-02-23T04:02:21.376Z,92.80
2019-02-23T04:04:50.311Z,92.90
2019-02-23T04:07:19.268Z,92.80
2019-02-23T04:09:48.289Z,92.80
2019-02-23T04:12:17.186Z,93.00
2019-02-23T04:14:46.966Z,92.90
2019-02-23T04:17:15.892Z,93.40
2019-02-23T04:19:45.093Z,93.40
2019-02-23T04:22:14.210Z,93.60
2019-02-23T04:24:43.418Z,93.60
2019-02-23T04:27:12.572Z,93.70
2019-02-23T04:29:41.453Z,93.80
2019-02-23T04:32:10.427Z,93.80
2019-02-23T04:34:39.296Z,93.80
2019-02-23T04:37:08.349Z,93.90
2019-02-23T04:39:37.530Z,93.70
2019-02-23T04:42:06.538Z,94.00
2019-02-23T04:44:35.584Z,93.40
2019-02-23T04:47:04.576Z,93.60
2019-02-23T04:49:33.530Z,93.60
2019-02-23T04:52:02.780Z,93.50
2019-02-23T04:54:37.412Z,93.70
2019-02-23T04:57:06.267Z,93.70
2019-02-23T04:59:35.107Z,94.00
2019-02-23T05:02:04.136Z,93.90
2019-02-23T05:04:33.132Z,93.90
2019-02-23T05:07:04.317Z,93.80
2019-02-23T05:09:33.312Z,93.90
2019-02-23T05:12:02.352Z,93.80
2019-02-23T05:14:31.240Z,93.90
2019-02-23T05:17:00.813Z,94.00
2019-02-23T05:19:29.736Z,94.00
2019-02-23T05:21:58.704Z,94.10
2019-02-23T05:24:27.798Z,94.10
2019-02-23T05:26:56.685Z,94.20
2019-02-23T05:29:25.544Z,94.00
2019-02-23T05:31:54.556Z,94.00
2019-02-23T05:34:23.446Z,94.10
2019-02-23T05:36:52.373Z,94.10
2019-02-23T05:39:21.260Z,93.70
2019-02-23T05:41:50.212Z,93.80
2019-02-23T05:44:19.182Z,93.90
2019-02-23T05:46:48.104Z,93.90
2019-02-23T05:49:16.991Z,94.00
2019-02-23T05:51:45.882Z,94.20
2019-02-23T05:54:14.780Z,94.40
2019-02-23T05:56:43.724Z,94.40
2019-02-23T05:59:12.639Z,94.30
2019-02-23T06:01:41.496Z,94.40
2019-02-23T06:04:10.482Z,94.30
2019-02-23T06:06:39.395Z,94.30
2019-02-23T06:09:08.266Z,94.40
2019-02-23T06:11:37.207Z,94.10
2019-02-23T06:14:06.321Z,94.10
2019-02-23T06:16:35.240Z,94.20
2019-02-23T06:19:04.157Z,94.10
2019-02-23T06:21:33.103Z,94.20
2019-02-23T06:24:02.058Z,94.30
2019-02-23T06:26:30.973Z,94.20
2019-02-23T06:28:59.941Z,94.30
2019-02-23T06:31:29.153Z,94.30
2019-02-23T06:33:58.208Z,94.10
2019-02-23T06:36:27.142Z,94.00
2019-02-23T06:38:56.072Z,94.10
2019-02-23T06:41:25.117Z,94.10
2019-02-23T06:43:54.029Z,94.10
2019-02-23T06:46:23.068Z,94.20
2019-02-23T06:48:51.915Z,94.20
2019-02-23T06:51:20.780Z,94.00
2019-02-23T06:53:49.706Z,93.60
2019-02-23T06:56:18.704Z,93.40
2019-02-23T06:58:47.652Z,92.90
2019-02-23T07:01:16.622Z,92.40
2019-02-23T07:03:45.748Z,92.10
2019-02-23T07:06:14.620Z,91.90
2019-02-23T07:08:43.464Z,91.80
2019-02-23T07:11:13.453Z,91.50
2019-02-23T07:13:42.330Z,91.30
2019-02-23T07:16:11.171Z,90.90
2019-02-23T07:18:40.957Z,91.00
2019-02-23T07:21:09.901Z,90.80
2019-02-23T07:23:38.956Z,90.00
2019-02-23T07:26:07.968Z,89.10
2019-02-23T07:28:36.852Z,89.30
2019-02-23T07:31:05.812Z,88.60
2019-02-23T07:33:34.649Z,87.40
2019-02-23T07:36:03.621Z,86.70
2019-02-23T07:38:35.449Z,86.40
2019-02-23T07:41:03.492Z,84.00
2019-02-23T07:43:32.371Z,82.90
2019-02-23T07:46:01.269Z,80.70
2019-02-23T07:48:30.235Z,79.00
2019-02-23T07:50:59.144Z,78.10
2019-02-23T07:53:28.160Z,76.30
2019-02-23T07:55:57.180Z,75.50
2019-02-23T07:58:26.107Z,74.40
2019-02-23T08:00:55.005Z,73.20
2019-02-23T08:03:24.015Z,73.30
2019-02-23T08:05:52.869Z,71.90
2019-02-23T08:08:21.739Z,70.70
2019-02-23T08:10:51.074Z,70.60
2019-02-23T08:13:19.964Z,68.20
2019-02-23T08:15:48.824Z,68.40
2019-02-23T08:18:17.732Z,65.50
2019-02-23T08:20:46.711Z,63.90
2019-02-23T08:23:16.080Z,64.00
2019-02-23T08:25:45.005Z,64.40
2019-02-23T08:28:13.863Z,60.20
2019-02-23T08:30:42.728Z,58.90
2019-02-23T08:33:11.607Z,57.90
2019-02-23T08:35:40.547Z,57.00
2019-02-23T08:38:09.468Z,57.30
2019-02-23T08:40:38.671Z,56.00
2019-02-23T08:43:07.841Z,55.20
2019-02-23T08:45:36.784Z,56.10
2019-02-23T08:48:05.868Z,57.30
2019-02-23T08:50:34.992Z,55.70
2019-02-23T08:53:04.285Z,52.60
2019-02-23T08:55:33.300Z,54.40
2019-02-23T08:58:02.244Z,55.40
2019-02-23T09:00:31.224Z,54.70
2019-02-23T09:03:00.175Z,56.50
2019-02-23T09:05:29.116Z,55.40
2019-02-23T09:07:57.944Z,54.00
2019-02-23T09:10:26.836Z,52.80
2019-02-23T09:12:55.780Z,52.00
2019-02-23T09:15:24.729Z,51.60
2019-02-23T09:17:53.948Z,52.80
2019-02-23T09:20:29.287Z,52.50
2019-02-23T09:23:00.277Z,53.90
2019-02-23T09:25:24.519Z,53.40
2019-02-23T09:27:53.440Z,50.90
2019-02-23T09:30:22.349Z,50.50
2019-02-23T09:32:51.232Z,50.70
2019-02-23T09:35:20.209Z,48.80
2019-02-23T09:37:49.120Z,46.40
2019-02-23T09:40:18.311Z,43.70
2019-02-23T09:42:47.620Z,44.10
2019-02-23T09:45:16.606Z,44.80
2019-02-23T09:47:45.557Z,43.50
2019-02-23T09:50:14.592Z,43.00
2019-02-23T09:52:43.512Z,39.90
2019-02-23T09:55:12.548Z,39.50
2019-02-23T09:57:41.472Z,35.20
2019-02-23T10:00:10.891Z,36.50
2019-02-23T10:02:39.975Z,35.50
2019-02-23T10:05:09.617Z,33.90
2019-02-23T10:07:38.551Z,31.80
2019-02-23T10:10:08.105Z,30.20
2019-02-23T10:12:37.141Z,30.00
2019-02-23T10:15:06.489Z,31.90
2019-02-23T10:17:35.524Z,31.20
2019-02-23T10:20:04.817Z,30.30
2019-02-23T10:22:33.808Z,29.50
2019-02-23T10:25:02.759Z,29.70
2019-02-23T10:27:31.960Z,28.20
2019-02-23T10:30:00.805Z,26.20
2019-02-23T10:32:29.832Z,27.80
2019-02-23T10:34:59.084Z,26.80
2019-02-23T10:37:28.116Z,27.60
2019-02-23T10:39:57.140Z,25.70
2019-02-23T10:42:26.000Z,27.80
2019-02-23T10:44:55.340Z,27.40
2019-02-23T10:47:24.383Z,27.30
2019-02-23T10:49:53.320Z,27.00
2019-02-23T10:52:22.356Z,26.20
2019-02-23T10:54:51.349Z,27.20
2019-02-23T10:57:20.374Z,25.50
2019-02-23T10:59:49.212Z,27.10
2019-02-23T11:02:18.254Z,27.40
2019-02-23T11:04:47.413Z,27.20
2019-02-23T11:07:17.129Z,26.00
2019-02-23T11:09:46.145Z,24.80
2019-02-23T11:12:15.095Z,26.50
2019-02-23T11:14:44.015Z,25.60
2019-02-23T11:17:13.033Z,25.40
2019-02-23T11:19:42.319Z,25.60
2019-02-23T11:22:12.019Z,26.50
2019-02-23T11:24:41.039Z,26.20
2019-02-23T11:27:10.016Z,25.40
2019-02-23T11:29:39.061Z,25.30
2019-02-23T11:32:08.050Z,24.80
2019-02-23T11:34:36.929Z,25.20
2019-02-23T11:37:05.896Z,23.20
2019-02-23T11:39:34.872Z,23.10
2019-02-23T11:42:03.825Z,22.80
2019-02-23T11:44:32.701Z,22.60
2019-02-23T11:47:01.624Z,24.80
2019-02-23T11:49:30.547Z,24.00
2019-02-23T11:51:59.463Z,25.40
2019-02-23T11:54:28.387Z,24.00
2019-02-23T11:56:57.241Z,23.40
2019-02-23T11:59:26.163Z,22.70
2019-02-23T12:01:55.159Z,21.90
2019-02-23T12:04:24.013Z,21.70
2019-02-23T12:06:52.945Z,21.40
2019-02-23T12:09:21.881Z,21.10
2019-02-23T12:11:50.712Z,21.40
2019-02-23T12:14:19.633Z,20.90
2019-02-23T12:16:48.556Z,20.90
2019-02-23T12:19:17.446Z,21.40
2019-02-23T12:21:46.708Z,20.60
2019-02-23T12:24:15.564Z,21.20
2019-02-23T12:26:44.413Z,19.10
2019-02-23T12:29:13.244Z,19.60
2019-02-23T12:31:42.503Z,18.00
2019-02-23T12:34:11.325Z,19.70
2019-02-23T12:36:40.155Z,18.80
2019-02-23T12:39:09.008Z,18.40
2019-02-23T12:41:37.848Z,19.40
2019-02-23T12:44:06.844Z,18.30
2019-02-23T12:46:35.783Z,17.60
2019-02-23T12:49:04.747Z,19.10
2019-02-23T12:51:33.744Z,18.60
2019-02-23T12:54:02.720Z,17.80
2019-02-23T12:56:32.093Z,16.90
2019-02-23T12:59:01.168Z,19.20
2019-02-23T13:01:30.322Z,16.50
2019-02-23T13:03:59.225Z,18.10
2019-02-23T13:06:28.245Z,17.30
2019-02-23T13:09:26.131Z,18.30
2019-02-23T13:12:14.445Z,17.50
2019-02-23T13:15:00.711Z,18.50
2019-02-23T13:18:12.336Z,17.50
2019-02-23T13:21:37.697Z,19.40
2019-02-23T13:24:33.701Z,18.20
2019-02-23T13:27:55.804Z,18.20
2019-02-23T13:30:50.557Z,17.50
2019-02-23T13:33:54.820Z,18.80
2019-02-23T13:37:06.868Z,18.70
2019-02-23T13:40:07.608Z,18.20
2019-02-23T13:43:05.698Z,19.00
2019-02-23T13:46:05.818Z,18.80
2019-02-23T13:49:37.208Z,18.20
2019-02-23T13:52:53.160Z,18.60
2019-02-23T13:55:58.520Z,18.40
2019-02-23T13:58:54.139Z,18.60
2019-02-23T14:01:45.968Z,18.50
2019-02-23T14:04:59.300Z,18.90
2019-02-23T14:08:11.163Z,18.20
2019-02-23T14:11:48.858Z,18.90
2019-02-23T14:14:33.240Z,18.60
2019-02-23T14:17:31.420Z,19.80
2019-02-23T14:20:37.543Z,19.50
2019-02-23T14:23:18.951Z,19.40
2019-02-23T14:26:33.136Z,19.80
2019-02-23T14:29:33.110Z,19.80
2019-02-23T14:32:37.304Z,21.10
2019-02-23T14:35:24.624Z,22.20
2019-02-23T14:38:21.252Z,21.30
2019-02-23T14:41:28.548Z,21.20
2019-02-23T14:44:27.734Z,21.10
2019-02-23T14:47:20.868Z,22.60
2019-02-23T14:50:14.375Z,22.00
2019-02-23T14:53:02.857Z,21.60
2019-02-23T14:56:08.051Z,22.20
2019-02-23T14:59:42.468Z,22.90
2019-02-23T15:02:52.524Z,23.40
2019-02-23T15:05:50.181Z,23.50
2019-02-23T15:08:50.847Z,24.40
2019-02-23T15:11:59.136Z,22.90
2019-02-23T15:14:57.776Z,23.00
2019-02-23T15:18:16.284Z,24.00
2019-02-23T15:21:10.395Z,24.30
2019-02-23T15:24:17.950Z,24.20
2019-02-23T15:27:43.259Z,24.00
2019-02-23T15:30:36.917Z,25.20
2019-02-23T15:33:48.780Z,26.30
2019-02-23T15:36:46.287Z,26.90
2019-02-23T15:40:10.807Z,27.00
2019-02-23T15:43:30.266Z,26.50
2019-02-23T15:46:42.111Z,26.80
2019-02-23T15:49:29.765Z,27.50
2019-02-23T15:51:59.578Z,27.80
2019-02-23T15:54:29.332Z,27.30
2019-02-23T15:56:58.464Z,28.00
2019-02-23T15:59:27.513Z,28.10
2019-02-23T16:01:56.521Z,27.80
2019-02-23T16:04:25.457Z,27.80
2019-02-23T16:06:54.738Z,28.00
2019-02-23T16:09:23.643Z,27.90
2019-02-23T16:11:52.592Z,28.80
2019-02-23T16:14:21.467Z,28.30
2019-02-23T16:16:50.444Z,28.80
2019-02-23T16:19:19.501Z,30.00
2019-02-23T16:21:48.436Z,30.00
2019-02-23T16:24:17.395Z,29.60
2019-02-23T16:26:46.398Z,29.30
2019-02-23T16:29:19.699Z,30.10
2019-02-23T16:31:48.648Z,30.50
2019-02-23T16:34:17.811Z,31.20
2019-02-23T16:36:46.721Z,32.90
2019-02-23T16:39:15.868Z,33.10
2019-02-23T16:41:44.928Z,33.60
2019-02-23T16:44:13.900Z,34.50
2019-02-23T16:46:46.177Z,34.90
2019-02-23T16:49:13.516Z,35.00
2019-02-23T16:51:42.450Z,35.20
2019-02-23T16:54:11.399Z,36.90
2019-02-23T16:56:40.418Z,36.90
2019-02-23T16:59:09.339Z,38.90
2019-02-23T17:01:38.220Z,39.20
2019-02-23T17:04:07.157Z,40.20
2019-02-23T17:06:36.408Z,40.20
2019-02-23T17:09:06.443Z,40.50
2019-02-23T17:11:35.376Z,41.20
2019-02-23T17:14:04.424Z,42.00
2019-02-23T17:16:33.432Z,42.50
2019-02-23T17:19:02.291Z,43.30
2019-02-23T17:21:31.220Z,44.40
2019-02-23T17:24:00.141Z,44.30
2019-02-23T17:26:29.283Z,44.40
2019-02-23T17:29:00.117Z,44.70
2019-02-23T17:31:29.077Z,45.40
2019-02-23T17:33:58.049Z,46.30
2019-02-23T17:36:27.004Z,45.70
2019-02-23T17:38:55.955Z,45.70
2019-02-23T17:41:25.280Z,46.60
2019-02-23T17:43:54.311Z,46.70
2019-02-23T17:46:23.292Z,47.10
2019-02-23T17:48:52.222Z,47.80
2019-02-23T17:51:21.112Z,48.00
2019-02-23T17:53:50.022Z,47.50
2019-02-23T17:56:18.866Z,47.40
2019-02-23T17:58:47.846Z,47.90
2019-02-23T18:01:16.688Z,47.70
2019-02-23T18:03:45.560Z,47.80
2019-02-23T18:06:14.548Z,47.80
2019-02-23T18:08:43.399Z,47.60
2019-02-23T18:11:12.247Z,48.40
2019-02-23T18:13:41.235Z,49.00
2019-02-23T18:16:10.101Z,48.60
2019-02-23T18:18:39.289Z,48.90
2019-02-23T18:21:08.292Z,49.50
2019-02-23T18:23:37.393Z,49.40
2019-02-23T18:26:06.395Z,49.30
2019-02-23T18:28:35.462Z,49.60
2019-02-23T18:31:04.404Z,49.80
2019-02-23T18:33:33.287Z,49.80
2019-02-23T18:36:02.157Z,49.80
2019-02-23T18:38:31.036Z,49.60
2019-02-23T18:40:59.897Z,49.20
2019-02-23T18:43:28.804Z,49.70
2019-02-23T18:45:58.103Z,50.60
2019-02-23T18:48:27.131Z,50.20
2019-02-23T18:50:56.049Z,52.10
2019-02-23T18:53:25.012Z,51.70
2019-02-23T18:55:53.980Z,52.20
2019-02-23T18:58:22.937Z,52.30
2019-02-23T19:00:51.904Z,52.30
2019-02-23T19:03:20.868Z,52.60
2019-02-23T19:05:50.282Z,52.60
2019-02-23T19:08:19.287Z,53.20
2019-02-23T19:10:48.284Z,53.30
2019-02-23T19:13:17.392Z,54.00
2019-02-23T19:15:46.452Z,53.40
2019-02-23T19:18:15.329Z,55.10
2019-02-23T19:20:46.403Z,56.50
2019-02-23T19:23:15.547Z,56.00
2019-02-23T19:25:44.556Z,56.80
2019-02-23T19:28:13.955Z,56.90
2019-02-23T19:30:42.905Z,57.10
2019-02-23T19:33:11.845Z,57.70
2019-02-23T19:35:40.917Z,57.60
2019-02-23T19:38:10.045Z,58.20
2019-02-23T19:40:38.904Z,58.80
2019-02-23T19:43:08.508Z,59.40
2019-02-23T19:45:37.961Z,59.10
2019-02-23T19:48:06.831Z,58.50
2019-02-23T19:50:39.257Z,58.40
2019-02-23T19:53:08.273Z,57.60
2019-02-23T19:55:37.525Z,56.90
2019-02-23T19:58:06.489Z,57.60
2019-02-23T20:00:35.404Z,57.20
2019-02-23T20:03:04.675Z,57.40
2019-02-23T20:05:33.659Z,57.30
2019-02-23T20:08:02.696Z,56.90
2019-02-23T20:10:31.596Z,57.20
2019-02-23T20:13:00.454Z,57.80
2019-02-23T20:15:29.420Z,58.40
2019-02-23T20:17:58.725Z,58.80
2019-02-23T20:20:27.674Z,59.10
2019-02-23T20:22:56.704Z,59.30
2019-02-23T20:25:25.783Z,59.10
2019-02-23T20:27:54.862Z,59.20
2019-02-23T20:30:23.785Z,58.60
2019-02-23T20:32:52.639Z,58.50
2019-02-23T20:35:21.710Z,59.00
2019-02-23T20:37:50.594Z,58.90
2019-02-23T20:40:19.508Z,59.60
2019-02-23T20:42:48.355Z,59.80
2019-02-23T20:45:17.305Z,59.80
2019-02-23T20:47:46.359Z,59.60
2019-02-23T20:50:15.367Z,60.60
2019-02-23T20:52:44.239Z,59.80
2019-02-23T20:55:13.399Z,59.80
2019-02-23T20:57:42.292Z,60.00
2019-02-23T21:00:11.353Z,59.00
2019-02-23T21:02:40.433Z,59.40
2019-02-23T21:05:09.820Z,59.60
2019-02-23T21:07:40.077Z,61.50
2019-02-23T21:10:09.177Z,62.40
2019-02-23T21:12:38.160Z,62.80
2019-02-23T21:15:08.712Z,63.40
2019-02-23T21:17:37.797Z,64.10
2019-02-23T21:20:08.347Z,66.50
2019-02-23T21:22:40.293Z,66.50
2019-02-23T21:25:09.823Z,65.60
2019-02-23T21:27:38.756Z,65.30
2019-02-23T21:30:08.276Z,65.50
2019-02-23T21:32:37.276Z,65.50
2019-02-23T21:35:06.205Z,66.00
2019-02-23T21:37:35.080Z,65.80
2019-02-23T21:40:04.147Z,66.20
2019-02-23T21:42:33.407Z,65.00
2019-02-23T21:45:02.365Z,64.60
2019-02-23T21:47:31.297Z,64.20
2019-02-23T21:50:00.333Z,63.40
2019-02-23T21:52:29.364Z,63.00
2019-02-23T21:54:58.437Z,63.60
2019-02-23T21:57:27.441Z,64.20
2019-02-23T21:59:57.302Z,64.10
2019-02-23T22:02:26.365Z,63.60
2019-02-23T22:04:55.299Z,63.40
2019-02-23T22:07:24.226Z,62.40
2019-02-23T22:09:53.266Z,62.50
2019-02-23T22:12:22.266Z,63.20
2019-02-23T22:14:51.473Z,63.40
2019-02-23T22:17:20.401Z,63.20
2019-02-23T22:19:49.407Z,63.30
2019-02-23T22:22:18.483Z,63.20
2019-02-23T22:24:47.404Z,62.50
2019-02-23T22:27:16.350Z,62.60
2019-02-23T22:29:45.624Z,62.60
2019-02-23T22:32:14.666Z,62.50
2019-02-23T22:34:43.528Z,62.20
2019-02-23T22:37:12.546Z,62.10
2019-02-23T22:39:41.530Z,62.40
2019-02-23T22:42:10.517Z,62.40
2019-02-23T22:44:39.544Z,63.50
2019-02-23T22:47:08.517Z,64.10
2019-02-23T22:49:37.532Z,64.60
2019-02-23T22:52:06.540Z,65.80
2019-02-23T22:54:35.388Z,66.50
2019-02-23T22:57:04.494Z,67.40
2019-02-23T22:59:34.661Z,68.20
2019-02-23T23:02:03.756Z,69.60
2019-02-23T23:04:33.101Z,69.70
2019-02-23T23:07:02.097Z,69.50
2019-02-23T23:09:30.948Z,66.30
2019-02-23T23:12:00.032Z,64.60
2019-02-23T23:14:28.944Z,64.80
2019-02-23T23:16:57.963Z,64.80
2019-02-23T23:19:26.877Z,64.60
2019-02-23T23:21:56.084Z,65.40
2019-02-23T23:24:25.062Z,65.60
2019-02-23T23:26:53.994Z,66.10
2019-02-23T23:29:22.940Z,66.30
2019-02-23T23:31:51.941Z,66.30
2019-02-23T23:34:20.904Z,65.90
2019-02-23T23:36:49.868Z,66.00
2019-02-23T23:39:18.799Z,66.60
2019-02-23T23:41:47.795Z,67.60
2019-02-23T23:44:16.972Z,67.20
2019-02-23T23:46:45.904Z,67.80
2019-02-23T23:49:14.812Z,67.40
2019-02-23T23:51:43.676Z,67.90
2019-02-23T23:54:12.656Z,67.10
2019-02-23T23:56:41.528Z,69.20
2019-02-23T23:59:10.366Z,70.50
